This is the latest recevied weather packets stored in our database for station/object HB0PJ-13. If no packets are shown the sender has not sent any weather packets the latest 10 day(s).
| Time | Temp. | Humidity | Pressure | Rain* | Wind** | Luminosity | Snow |
|---|---|---|---|---|---|---|---|
| 1778080806 | 13.89° C | 59% | 952.6 hPa | - | - | 14 W/m² | - |
| 1778080566 | 13.89° C | 60% | 952.8 hPa | - | - | 12 W/m² | - |
| 1778080326 | 13.89° C | 61% | 952.9 hPa | - | - | 14 W/m² | - |
| 1778080086 | 13.89° C | 60% | 953.1 hPa | - | - | 13 W/m² | - |
| 1778079966 | 13.33° C | 61% | 953.1 hPa | - | - | 14 W/m² | - |
| 1778079606 | 13.33° C | 64% | 953 hPa | - | - | 17 W/m² | - |
| 1778079486 | 13.33° C | 64% | 952.8 hPa | - | - | 12 W/m² | - |
| 1778079246 | 13.33° C | 60% | 952.3 hPa | - | - | 5 W/m² | - |
| 1778079126 | 13.33° C | 57% | 952.1 hPa | - | - | 3 W/m² | - |
| 1778079006 | 13.33° C | 55% | 952 hPa | - | - | 2 W/m² | - |
| 1778078766 | 13.89° C | 54% | 951.8 hPa | - | - | 2 W/m² | - |
| 1778078646 | 13.89° C | 53% | 951.9 hPa | - | - | 3 W/m² | - |
| 1778078526 | 13.89° C | 52% | 951.6 hPa | - | - | 4 W/m² | - |
| 1778078406 | 13.89° C | 52% | 951.4 hPa | - | - | 4 W/m² | - |
| 1778078286 | 14.44° C | 51% | 951.4 hPa | - | - | 5 W/m² | - |
| 1778078046 | 15° C | 50% | 951.4 hPa | - | - | 6 W/m² | - |
| 1778077926 | 15° C | 50% | 951.5 hPa | - | - | 7 W/m² | - |
| 1778077686 | 15° C | 50% | 951.1 hPa | - | - | 12 W/m² | - |
| 1778077446 | 15.56° C | 47% | 951.1 hPa | - | - | 13 W/m² | - |
| 1778077326 | 16.11° C | 46% | 950.9 hPa | - | - | 12 W/m² | - |
| 1778077206 | 16.11° C | 47% | 951 hPa | - | - | 14 W/m² | - |
| 1778077086 | 16.67° C | 48% | 951 hPa | - | - | 17 W/m² | - |
| 1778076966 | 16.67° C | 45% | 950.8 hPa | - | - | 18 W/m² | - |
| 1778076846 | 16.67° C | 44% | 951 hPa | - | - | 18 W/m² | - |
| 1778076726 | 16.67° C | 44% | 950.8 hPa | - | - | 20 W/m² | - |
* Rain since midnight (hover to see other rain measurements)
** Current wind speed in m/s (hover to see current wind gust speed)